Terminal Aerodrome Forecast
Issued by NWS

Home | Current Version | Previous Version | Text Only | Print | Product List | Glossary On
Versions: 1 2 3 4 5 6 7 8 9 10 11 12 13 14 15 16 17 18 19 20 21 22
710
FTUS46 KLOX 180002 CCA
TAFPMD
TAF COR
KPMD 180002Z 1800/1824 28020G28KT P6SM FEW035
     FM180230 28010KT P6SM SKC
     FM180500 27005KT P6SM SKC
     FM181800 04010KT P6SM SCT250=

USA.gov is the U.S. government's official web portal to all federal, state and local government web resources and services.